Main page
METAR-TAF:

METAR-TAF

Airports :

Sofia Airport

Sofia, Bulgaria

latitude: 42-39N, longitude: 023-23E, elevation: 586 m

Current weather observation

The report was made 17 minutes ago, at 00:00 UTC
Wind 6 kt from the Northwest
Temperature 1°C
Humidity 75%
Pressure 1030 hPa
Visibility 10 km or more
Overcast at a height of 4300 ft

METAR: LBSF 160000Z 32006KT 9999 OVC043 01/M03 Q1030 NOSIG

Time: 02:17 (00:17 UTC)

Forecast

The report was made 1 hour and 17 minutes ago, at 23:00 UTC
Forecast valid from 16 at 00 UTC to 16 at 24 UTC
Wind 4 kt from variable directions
Visibility 10 km or more
Scattered clouds at a height of 3000 ft
Scattered clouds at a height of 5000 ft
Temporary
from 16 at 02 UTC to 16 at 07 UTC
Visibility: 5000 m
mist
Becoming
from 16 at 11 UTC to 16 at 12 UTC
Wind 10 kt from the North/Northeast
Becoming
from 16 at 16 UTC to 16 at 18 UTC
Wind 8 kt from the West/Northwest

TAF: LBSF 152300Z 1600/1624 VRB04KT 9999 SCT030 SCT050 TEMPO 1602/1607 5000 BR BECMG 1611/1612 02010KT BECMG 1616/1618 30008KT

Weather observations and forecasts of more than 4000 airports (METAR and TAF reports).

The available stations are represented by yellow and red dots on the map.

Hover mouse over dot to see the name of the station.

Then click to see weather observations and forecasts.

To change the map : click on the green buttons with a black cross to zoom in, on the green button with a dash to zoom out, or on the green arrows for adjacent maps.


METAR-TAF: